Three Mile, North Carolina
Current Conditions -  °F | °C
As of 5:15 AM on Thursday 23 Oct 2014 (Local Time) from KTNB Reporting Station
Clear Clear  
Wind Chill: 33°   Ceiling: Unl
Heat Index: 40°   Visibility: 10mi
Dew Point: 34°   Wind: 13mph
Humidity: 79%   Direction: 290°WNW
Pressure: 30.1"   Gusts: 22mph
Location:  36.0227°N, 81.9499°W
Report Text: KTNB 230915Z AUTO 29011G19KT 270V330 10SM CLR 05/01 A3010 RMK AO2 T00460013
Loading
Personal Weather Stations






























Interactive Weather Map
Tropical Storm Tracking
New forecast layout! Learn more

10-Day Weather Forecast

Advertisements
Track Severe Weather on mobile